createdAt,value
2022-12-22T00:01:30.788Z,71.55
2022-12-22T00:04:19.299Z,71.40
2022-12-22T00:07:07.656Z,71.51
2022-12-22T00:09:55.962Z,71.50
2022-12-22T00:12:44.185Z,71.45
2022-12-22T00:15:33.659Z,71.47
2022-12-22T00:18:21.863Z,71.39
2022-12-22T00:21:10.214Z,71.46
2022-12-22T00:23:58.617Z,71.49
2022-12-22T00:26:46.860Z,71.55
2022-12-22T00:29:35.464Z,71.39
2022-12-22T00:32:23.920Z,71.37
2022-12-22T00:35:12.320Z,71.30
2022-12-22T00:38:00.621Z,71.19
2022-12-22T00:40:48.653Z,71.10
2022-12-22T00:43:36.840Z,71.24
2022-12-22T00:46:27.375Z,71.32
2022-12-22T00:49:15.709Z,71.48
2022-12-22T00:52:03.906Z,71.33
2022-12-22T00:54:51.756Z,71.50
2022-12-22T00:57:39.999Z,71.35
2022-12-22T01:00:33.319Z,71.16
2022-12-22T01:03:21.462Z,71.15
2022-12-22T01:06:09.852Z,71.38
2022-12-22T01:08:57.965Z,71.60
2022-12-22T01:11:46.151Z,71.77
2022-12-22T01:14:34.588Z,71.52
2022-12-22T01:17:22.867Z,71.70
2022-12-22T01:20:11.133Z,71.44
2022-12-22T01:22:59.688Z,71.45
2022-12-22T01:25:47.961Z,71.42
2022-12-22T01:28:35.912Z,71.30
2022-12-22T01:31:30.060Z,71.20
2022-12-22T01:34:18.334Z,71.21
2022-12-22T01:37:06.544Z,71.23
2022-12-22T01:39:54.677Z,71.43
2022-12-22T01:42:43.050Z,71.52
2022-12-22T01:45:36.944Z,71.42
2022-12-22T01:48:25.776Z,71.29
2022-12-22T01:51:14.111Z,71.46
2022-12-22T01:54:02.380Z,71.16
2022-12-22T01:56:50.202Z,71.44
2022-12-22T01:59:38.551Z,71.34
2022-12-22T02:02:27.075Z,71.22
2022-12-22T02:05:15.702Z,71.12
2022-12-22T02:08:10.349Z,71.20
2022-12-22T02:11:09.418Z,71.23
2022-12-22T02:13:58.667Z,71.12
2022-12-22T02:16:48.477Z,71.33
2022-12-22T02:19:38.896Z,71.41
2022-12-22T02:22:29.077Z,71.46
2022-12-22T02:25:19.143Z,71.54
2022-12-22T02:28:07.506Z,71.65
2022-12-22T02:30:55.835Z,71.68
2022-12-22T02:33:44.027Z,71.51
2022-12-22T02:36:33.151Z,71.45
2022-12-22T02:39:23.483Z,71.64
2022-12-22T02:42:13.494Z,71.65
2022-12-22T02:45:04.371Z,71.63
2022-12-22T02:47:53.134Z,71.49
2022-12-22T02:50:41.846Z,71.65
2022-12-22T02:53:30.013Z,71.65
2022-12-22T02:56:18.797Z,71.65
2022-12-22T02:59:07.036Z,71.59
2022-12-22T03:01:55.246Z,71.72
2022-12-22T03:04:43.453Z,71.66
2022-12-22T03:07:31.672Z,71.71
2022-12-22T03:10:19.809Z,71.65
2022-12-22T03:13:08.024Z,71.54
2022-12-22T03:15:56.423Z,71.75
2022-12-22T03:18:44.683Z,71.78
2022-12-22T03:21:33.050Z,71.83
2022-12-22T03:24:20.995Z,71.80
2022-12-22T03:26:51.648Z,71.70
2022-12-22T03:29:22.333Z,71.74
2022-12-22T03:31:53.218Z,71.58
2022-12-22T03:34:24.019Z,71.74
2022-12-22T03:36:54.739Z,71.79
2022-12-22T03:39:25.530Z,71.86
2022-12-22T03:42:13.601Z,71.63
2022-12-22T03:45:02.006Z,71.71
2022-12-22T03:47:33.578Z,71.51
2022-12-22T03:50:04.390Z,71.69
2022-12-22T03:52:35.161Z,71.80
2022-12-22T03:55:06.054Z,71.63
2022-12-22T03:57:36.667Z,71.84
2022-12-22T04:00:09.102Z,71.58
2022-12-22T04:02:40.074Z,71.74
2022-12-22T04:05:11.284Z,71.77
2022-12-22T04:07:42.082Z,71.58
2022-12-22T04:10:30.118Z,71.53
2022-12-22T04:13:00.893Z,71.82
2022-12-22T04:15:32.293Z,71.91
2022-12-22T04:18:03.180Z,71.92
2022-12-22T04:20:33.967Z,71.87
2022-12-22T04:23:04.982Z,71.69
2022-12-22T04:25:35.653Z,71.71
2022-12-22T04:28:06.534Z,71.78
2022-12-22T04:30:37.301Z,71.95
2022-12-22T04:33:07.975Z,72.05
2022-12-22T04:35:38.642Z,72.00
2022-12-22T04:38:09.423Z,72.09
2022-12-22T04:40:40.252Z,71.99
2022-12-22T04:43:11.036Z,72.01
2022-12-22T04:45:41.741Z,71.81
2022-12-22T04:48:12.651Z,71.50
2022-12-22T04:50:43.815Z,71.54
2022-12-22T04:53:14.563Z,71.92
2022-12-22T04:55:47.819Z,71.72
2022-12-22T04:58:18.484Z,71.79
2022-12-22T05:00:49.276Z,71.79
2022-12-22T05:03:20.281Z,71.85
2022-12-22T05:05:52.006Z,71.99
2022-12-22T05:08:22.993Z,72.09
2022-12-22T05:10:53.923Z,71.99
2022-12-22T05:13:24.843Z,72.10
2022-12-22T05:15:55.753Z,71.91
2022-12-22T05:18:26.642Z,71.76
2022-12-22T05:20:57.361Z,71.81
2022-12-22T05:23:28.180Z,71.62
2022-12-22T05:25:59.117Z,71.44
2022-12-22T05:28:29.967Z,71.47
2022-12-22T05:31:03.900Z,71.55
2022-12-22T05:33:34.860Z,71.79
2022-12-22T05:36:06.705Z,71.69
2022-12-22T05:38:37.476Z,71.70
2022-12-22T05:41:08.690Z,71.63
2022-12-22T05:43:40.386Z,71.73
2022-12-22T05:46:12.846Z,71.73
2022-12-22T05:48:43.777Z,71.72
2022-12-22T05:51:14.685Z,71.88
2022-12-22T05:53:45.645Z,71.82
2022-12-22T05:56:16.388Z,71.48
2022-12-22T05:58:47.731Z,71.43
2022-12-22T06:01:18.430Z,71.42
2022-12-22T06:03:51.254Z,71.21
2022-12-22T06:06:25.430Z,71.29
2022-12-22T06:08:56.239Z,71.36
2022-12-22T06:11:27.042Z,71.53
2022-12-22T06:13:57.743Z,71.63
2022-12-22T06:16:28.740Z,71.72
2022-12-22T06:18:59.668Z,71.73
2022-12-22T06:21:31.311Z,71.79
2022-12-22T06:24:02.102Z,71.95
2022-12-22T06:26:32.854Z,72.01
2022-12-22T06:29:03.494Z,71.72
2022-12-22T06:31:34.409Z,71.77
2022-12-22T06:34:05.825Z,71.81
2022-12-22T06:36:36.657Z,71.67
2022-12-22T06:39:07.682Z,71.70
2022-12-22T06:41:55.698Z,71.32
2022-12-22T06:44:30.737Z,71.72
2022-12-22T06:47:02.794Z,71.71
2022-12-22T06:49:33.672Z,71.62
2022-12-22T06:52:04.830Z,72.04
2022-12-22T06:54:35.567Z,72.14
2022-12-22T06:57:06.310Z,72.04
2022-12-22T06:59:37.297Z,72.04
2022-12-22T07:02:09.493Z,72.10
2022-12-22T07:04:41.679Z,71.76
2022-12-22T07:07:12.493Z,71.74
2022-12-22T07:09:43.285Z,71.95
2022-12-22T07:12:14.462Z,72.02
2022-12-22T07:14:45.984Z,71.65
2022-12-22T07:17:17.101Z,71.62
2022-12-22T07:19:49.371Z,71.57
2022-12-22T07:22:27.575Z,71.82
2022-12-22T07:25:00.836Z,71.89
2022-12-22T07:27:37.412Z,71.85
2022-12-22T07:30:09.864Z,71.75
2022-12-22T07:32:42.698Z,71.81
2022-12-22T07:35:15.396Z,71.81
2022-12-22T07:37:52.860Z,71.41
2022-12-22T07:40:25.181Z,71.32
2022-12-22T07:42:59.932Z,71.66
2022-12-22T07:45:36.842Z,71.83
2022-12-22T07:48:29.516Z,72.02
2022-12-22T07:51:05.398Z,71.95
2022-12-22T07:53:40.451Z,71.83
2022-12-22T07:56:13.849Z,71.34
2022-12-22T07:58:47.544Z,71.14
2022-12-22T08:01:27.361Z,71.56
2022-12-22T08:04:00.933Z,71.64
2022-12-22T08:06:32.775Z,71.70
2022-12-22T08:09:04.899Z,71.90
2022-12-22T08:11:37.286Z,71.95
2022-12-22T08:14:11.752Z,71.79
2022-12-22T08:16:45.195Z,71.53
2022-12-22T08:19:18.488Z,71.67
2022-12-22T08:21:52.775Z,71.96
2022-12-22T08:31:23.867Z,71.76
2022-12-22T08:33:54.938Z,71.91
2022-12-22T08:36:25.960Z,71.98
2022-12-22T08:38:57.043Z,72.06
2022-12-22T08:41:41.828Z,72.01
2022-12-22T08:44:12.731Z,71.92
2022-12-22T08:46:43.669Z,72.04
2022-12-22T08:49:14.598Z,71.88
2022-12-22T08:51:45.731Z,71.99
2022-12-22T09:01:20.419Z,72.05
2022-12-22T09:03:52.157Z,71.48
2022-12-22T09:06:27.247Z,71.69
2022-12-22T09:08:59.229Z,71.76
2022-12-22T09:11:30.643Z,71.93
2022-12-22T09:14:02.112Z,71.92
2022-12-22T09:16:34.157Z,71.94
2022-12-22T09:19:05.215Z,72.10
2022-12-22T09:21:36.460Z,72.14
2022-12-22T09:24:08.634Z,71.61
2022-12-22T09:26:39.553Z,71.64
2022-12-22T09:29:10.951Z,71.99
2022-12-22T09:31:43.029Z,71.90
2022-12-22T09:34:18.038Z,71.84
2022-12-22T09:36:49.482Z,71.93
2022-12-22T09:39:25.117Z,71.90
2022-12-22T09:41:59.664Z,71.61
2022-12-22T09:44:32.963Z,71.84
2022-12-22T09:47:18.218Z,71.80
2022-12-22T09:49:49.028Z,71.78
2022-12-22T09:52:29.052Z,71.60
2022-12-22T09:54:59.933Z,71.60
2022-12-22T09:57:32.275Z,71.71
2022-12-22T10:00:08.175Z,71.54
2022-12-22T10:02:41.481Z,71.70
2022-12-22T10:05:19.421Z,71.98
2022-12-22T10:07:50.658Z,71.79
2022-12-22T10:10:25.500Z,71.31
2022-12-22T10:13:00.211Z,71.68
2022-12-22T10:15:35.119Z,71.76
2022-12-22T10:18:12.379Z,71.83
2022-12-22T10:20:46.772Z,71.76
2022-12-22T10:23:21.388Z,71.69
2022-12-22T10:26:32.192Z,72.05
2022-12-22T10:28:55.184Z,71.94
2022-12-22T10:31:29.425Z,71.77
2022-12-22T10:34:11.992Z,71.95
2022-12-22T10:36:48.611Z,71.55
2022-12-22T10:39:23.018Z,71.57
2022-12-22T10:42:01.756Z,71.43
2022-12-22T10:44:35.674Z,71.70
2022-12-22T10:47:17.722Z,71.41
2022-12-22T10:52:33.810Z,71.43
2022-12-22T10:55:22.178Z,71.15
2022-12-22T10:58:12.708Z,71.13
2022-12-22T11:00:45.028Z,70.97
2022-12-22T11:03:53.318Z,70.90
2022-12-22T11:06:24.254Z,71.01
2022-12-22T11:09:01.517Z,71.22
2022-12-22T11:11:49.844Z,71.64
2022-12-22T11:14:24.278Z,71.55
2022-12-22T11:16:56.951Z,71.24
2022-12-22T11:19:34.004Z,71.22
2022-12-22T11:22:06.931Z,71.00
2022-12-22T11:24:40.430Z,70.44
2022-12-22T11:27:18.132Z,70.44
2022-12-22T11:30:04.889Z,70.45
2022-12-22T11:32:52.081Z,71.15
2022-12-22T11:35:27.531Z,70.89
2022-12-22T11:38:01.266Z,70.99
2022-12-22T11:40:33.449Z,71.01
2022-12-22T11:43:07.697Z,70.47
2022-12-22T11:45:43.568Z,71.09
2022-12-22T11:48:36.283Z,70.87
2022-12-22T11:51:12.804Z,70.85
2022-12-22T11:53:55.714Z,70.59
2022-12-22T11:56:26.710Z,71.17
2022-12-22T11:59:04.235Z,71.24
2022-12-22T12:01:49.853Z,71.01
2022-12-22T12:04:52.957Z,70.72
2022-12-22T12:07:27.536Z,70.75
2022-12-22T12:10:03.983Z,70.96
2022-12-22T12:12:36.467Z,70.55
2022-12-22T12:15:12.727Z,70.94
2022-12-22T12:17:46.367Z,70.92
2022-12-22T12:20:37.846Z,70.78
2022-12-22T12:23:11.713Z,70.80
2022-12-22T12:25:42.750Z,70.78
2022-12-22T12:28:20.037Z,70.37
2022-12-22T12:30:54.021Z,70.00
2022-12-22T12:33:27.493Z,70.49
2022-12-22T12:36:01.026Z,70.49
2022-12-22T12:39:06.437Z,69.89
2022-12-22T12:41:26.545Z,70.17
2022-12-22T12:43:58.158Z,70.78
2022-12-22T12:46:51.474Z,70.88
2022-12-22T12:49:39.550Z,70.47
2022-12-22T12:52:10.767Z,70.61
2022-12-22T12:54:46.671Z,70.48
2022-12-22T12:57:31.910Z,70.46
2022-12-22T13:00:02.857Z,70.38
2022-12-22T13:02:39.301Z,70.17
2022-12-22T13:05:29.415Z,70.07
2022-12-22T13:11:52.649Z,70.24
2022-12-22T13:14:35.487Z,70.22
2022-12-22T13:17:19.933Z,70.16
2022-12-22T13:20:08.571Z,70.48
2022-12-22T13:22:43.651Z,70.50
2022-12-22T13:25:19.504Z,70.24
2022-12-22T13:27:56.094Z,70.06
2022-12-22T13:30:27.121Z,69.82
2022-12-22T13:33:05.448Z,70.41
2022-12-22T13:43:11.758Z,70.71
2022-12-22T13:45:43.023Z,70.79
2022-12-22T13:48:22.479Z,70.60
2022-12-22T13:50:54.317Z,70.68
2022-12-22T13:56:21.940Z,70.47
2022-12-22T13:58:54.659Z,70.71
2022-12-22T14:01:25.581Z,70.52
2022-12-22T14:04:01.762Z,70.40
2022-12-22T14:06:34.236Z,70.43
2022-12-22T14:09:15.454Z,70.65
2022-12-22T14:11:51.698Z,70.32
2022-12-22T14:14:28.118Z,70.58
2022-12-22T14:16:59.566Z,70.53
2022-12-22T14:19:32.175Z,70.48
2022-12-22T14:22:05.304Z,70.65
2022-12-22T14:24:38.619Z,70.54
2022-12-22T14:27:10.766Z,70.59
2022-12-22T14:29:41.512Z,70.63
2022-12-22T14:32:12.503Z,70.50
2022-12-22T14:34:43.386Z,70.42
2022-12-22T14:37:14.151Z,70.34
2022-12-22T14:39:45.027Z,70.30
2022-12-22T14:42:15.835Z,70.16
2022-12-22T14:44:47.267Z,70.26
2022-12-22T14:47:19.747Z,70.40
2022-12-22T14:49:51.701Z,70.18
2022-12-22T14:52:26.828Z,70.20
2022-12-22T14:54:58.002Z,70.13
2022-12-22T14:57:32.610Z,70.05
2022-12-22T15:00:05.729Z,69.98
2022-12-22T15:02:39.860Z,70.17
2022-12-22T15:05:14.481Z,70.13
2022-12-22T15:10:39.402Z,70.37
2022-12-22T15:13:12.471Z,70.51
2022-12-22T15:15:46.635Z,70.46
2022-12-22T15:18:51.782Z,70.59
2022-12-22T15:21:31.493Z,70.53
2022-12-22T15:25:40.180Z,70.34
2022-12-22T15:27:05.829Z,70.57
2022-12-22T15:29:38.831Z,70.32
2022-12-22T15:32:26.541Z,70.45
2022-12-22T15:34:58.641Z,70.07
2022-12-22T15:37:29.675Z,70.08
2022-12-22T15:40:00.569Z,70.14
2022-12-22T15:42:33.027Z,70.07
2022-12-22T15:45:09.673Z,69.99
2022-12-22T15:51:47.045Z,70.25
2022-12-22T15:58:44.975Z,69.85
2022-12-22T16:01:24.970Z,70.34
2022-12-22T16:04:18.601Z,70.15
2022-12-22T16:06:52.855Z,69.89
2022-12-22T16:09:25.333Z,69.80
2022-12-22T16:11:57.052Z,70.14
2022-12-22T16:14:30.245Z,70.43
2022-12-22T16:17:04.681Z,70.42
2022-12-22T16:19:35.537Z,70.30
2022-12-22T16:22:06.218Z,70.46
2022-12-22T16:24:42.149Z,70.57
2022-12-22T16:27:29.045Z,70.38
2022-12-22T16:30:03.248Z,70.31
2022-12-22T16:32:34.563Z,70.26
2022-12-22T16:35:15.256Z,70.22
2022-12-22T16:37:46.076Z,70.25
2022-12-22T16:40:18.302Z,70.32
2022-12-22T16:45:39.191Z,70.22
2022-12-22T16:48:13.314Z,70.06
2022-12-22T16:50:45.582Z,70.15
2022-12-22T16:53:16.546Z,70.31
2022-12-22T16:55:47.198Z,70.53
2022-12-22T16:58:17.914Z,70.34
2022-12-22T17:00:48.780Z,70.63
2022-12-22T17:03:20.416Z,70.40
2022-12-22T17:05:52.124Z,70.33
2022-12-22T17:08:24.015Z,70.18
2022-12-22T17:10:54.993Z,69.88
2022-12-22T17:13:27.389Z,69.86
2022-12-22T17:15:58.430Z,69.83
2022-12-22T17:18:45.970Z,69.90
2022-12-22T17:24:38.935Z,69.94
2022-12-22T17:27:09.549Z,69.69
2022-12-22T17:29:40.510Z,69.95
2022-12-22T17:32:12.202Z,69.96
2022-12-22T17:34:43.034Z,69.88
2022-12-22T17:37:16.598Z,69.91
2022-12-22T17:39:47.775Z,69.96
2022-12-22T17:42:21.902Z,69.95
2022-12-22T17:44:53.052Z,70.11
2022-12-22T17:47:32.265Z,69.94
2022-12-22T17:50:04.438Z,69.88
2022-12-22T17:52:35.252Z,69.86
2022-12-22T17:55:06.721Z,69.81
2022-12-22T17:57:37.727Z,70.03
2022-12-22T18:00:17.906Z,70.02
2022-12-22T18:02:49.522Z,69.95
2022-12-22T18:05:21.331Z,70.59
2022-12-22T18:07:52.215Z,70.23
2022-12-22T18:10:25.929Z,70.21
2022-12-22T18:12:57.634Z,70.24
2022-12-22T18:15:30.744Z,70.26
2022-12-22T18:18:02.060Z,70.17
2022-12-22T18:20:32.984Z,70.15
2022-12-22T18:23:03.750Z,70.15
2022-12-22T18:25:34.527Z,70.43
2022-12-22T18:28:05.604Z,70.01
2022-12-22T18:30:37.142Z,69.96
2022-12-22T18:33:08.404Z,70.21
2022-12-22T18:35:49.922Z,70.14
2022-12-22T18:39:32.093Z,69.88
2022-12-22T18:41:59.550Z,70.13
2022-12-22T18:44:31.780Z,70.10
2022-12-22T18:47:13.110Z,70.19
2022-12-22T18:49:46.095Z,70.48
2022-12-22T18:52:46.306Z,70.50
2022-12-22T18:55:26.420Z,70.44
2022-12-22T18:57:58.328Z,70.43
2022-12-22T19:00:30.417Z,70.25
2022-12-22T19:03:05.376Z,70.50
2022-12-22T19:05:41.411Z,70.28
2022-12-22T19:08:14.074Z,70.19
2022-12-22T19:10:46.422Z,70.06
2022-12-22T19:13:21.831Z,69.96
2022-12-22T19:15:52.722Z,70.06
2022-12-22T19:18:27.020Z,70.23
2022-12-22T19:20:58.402Z,70.14
2022-12-22T19:23:29.187Z,70.07
2022-12-22T19:26:08.065Z,70.24
2022-12-22T19:28:40.353Z,70.46
2022-12-22T19:31:13.190Z,70.41
2022-12-22T19:33:44.435Z,70.36
2022-12-22T19:36:16.663Z,70.34
2022-12-22T19:38:50.830Z,70.52
2022-12-22T19:41:27.524Z,70.42
2022-12-22T19:43:58.383Z,70.58
2022-12-22T19:46:32.714Z,70.46
2022-12-22T19:49:49.027Z,70.53
2022-12-22T19:53:02.853Z,70.42
2022-12-22T19:56:04.666Z,70.68
2022-12-22T19:58:37.640Z,70.52
2022-12-22T20:01:11.728Z,70.25
2022-12-22T20:03:42.555Z,70.47
2022-12-22T20:06:13.217Z,70.68
2022-12-22T20:08:44.785Z,70.33
2022-12-22T20:11:16.606Z,70.20
2022-12-22T20:13:47.616Z,70.28
2022-12-22T20:16:18.543Z,70.14
2022-12-22T20:18:49.483Z,70.16
2022-12-22T20:21:22.452Z,70.42
2022-12-22T20:23:53.200Z,70.22
2022-12-22T20:26:25.073Z,70.45
2022-12-22T20:28:55.951Z,70.13
2022-12-22T20:31:26.822Z,70.47
2022-12-22T20:34:16.312Z,70.10
2022-12-22T20:37:06.102Z,70.53
2022-12-22T20:40:00.178Z,70.73
2022-12-22T20:42:38.080Z,70.83
2022-12-22T20:45:10.567Z,70.35
2022-12-22T20:47:43.376Z,70.53
2022-12-22T20:50:24.288Z,70.71
2022-12-22T20:52:55.886Z,70.41
2022-12-22T20:55:42.696Z,70.69
2022-12-22T20:58:17.141Z,70.59
2022-12-22T21:00:48.600Z,70.60
2022-12-22T21:03:19.788Z,70.49
2022-12-22T21:05:50.906Z,70.39
2022-12-22T21:08:22.488Z,70.32
2022-12-22T21:10:53.976Z,70.31
2022-12-22T21:13:24.756Z,70.18
2022-12-22T21:15:55.523Z,70.71
2022-12-22T21:18:26.257Z,70.65
2022-12-22T21:20:57.245Z,70.65
2022-12-22T21:23:28.140Z,70.49
2022-12-22T21:25:58.886Z,70.51
2022-12-22T21:28:31.356Z,70.49
2022-12-22T21:31:02.418Z,70.69
2022-12-22T21:33:33.294Z,70.71
2022-12-22T21:36:04.629Z,70.74
2022-12-22T21:38:35.389Z,70.87
2022-12-22T21:41:07.330Z,70.69
2022-12-22T21:43:38.269Z,70.74
2022-12-22T21:46:11.834Z,70.78
2022-12-22T21:48:42.680Z,70.58
2022-12-22T21:51:14.233Z,70.70
2022-12-22T21:53:45.019Z,70.55
2022-12-22T21:56:19.066Z,70.55
2022-12-22T21:58:49.967Z,70.32
2022-12-22T22:01:20.962Z,70.69
2022-12-22T22:03:52.004Z,71.16
2022-12-22T22:06:22.885Z,71.09
2022-12-22T22:08:53.662Z,71.03
2022-12-22T22:11:25.767Z,70.66
2022-12-22T22:13:56.531Z,71.12
2022-12-22T22:16:27.393Z,70.86
2022-12-22T22:18:58.174Z,70.88
2022-12-22T22:21:28.915Z,71.14
2022-12-22T22:23:59.757Z,71.35
2022-12-22T22:26:30.407Z,71.35
2022-12-22T22:29:01.161Z,71.34
2022-12-22T22:31:31.938Z,71.04
2022-12-22T22:34:02.609Z,71.17
2022-12-22T22:36:33.373Z,71.00
2022-12-22T22:39:04.089Z,70.98
2022-12-22T22:41:40.983Z,71.12
2022-12-22T22:44:13.695Z,70.94
2022-12-22T22:46:44.634Z,71.08
2022-12-22T22:49:15.630Z,71.20
2022-12-22T22:51:46.400Z,71.12
2022-12-22T22:54:17.238Z,71.25
2022-12-22T22:56:47.947Z,71.04
2022-12-22T22:59:18.687Z,71.20
2022-12-22T23:01:49.555Z,71.22
2022-12-22T23:04:20.287Z,70.95
2022-12-22T23:06:51.277Z,71.30
2022-12-22T23:09:22.000Z,71.17
2022-12-22T23:11:53.601Z,71.17
2022-12-22T23:14:25.768Z,71.27
2022-12-22T23:16:56.672Z,71.24
2022-12-22T23:19:27.477Z,71.12
2022-12-22T23:21:58.168Z,71.05
2022-12-22T23:24:28.805Z,71.13
2022-12-22T23:26:59.960Z,71.39
2022-12-22T23:29:30.707Z,71.36
2022-12-22T23:32:01.632Z,71.37
2022-12-22T23:34:32.484Z,71.17
2022-12-22T23:37:03.367Z,71.28
2022-12-22T23:39:33.959Z,71.02
2022-12-22T23:42:05.003Z,71.22
2022-12-22T23:44:35.724Z,71.04
2022-12-22T23:47:07.128Z,71.14
2022-12-22T23:49:37.937Z,71.18
2022-12-22T23:52:08.657Z,71.34
2022-12-22T23:54:39.545Z,71.50
2022-12-22T23:57:10.376Z,71.42
2022-12-22T23:59:41.111Z,71.77
